Time;durP1;ratioP1;P1;durP2;ratioP2;P2;SDS_P1;SDS_P2;PMS_P1;PMS_P2;Temp;Humidity;BMP_temperature;BMP_pressure;BME280_temperature;BME280_humidity;BME280_pressure;Samples;Min_cycle;Max_cycle;Signal;HPM_P1;HPM_P2
2022/11/28 00:01:51;;;;;;;238.25;80.38;;;4.30;99.90;;;;;;5074817;28;20028;-76
2022/11/28 00:04:17;;;;;;;205.93;69.82;;;4.30;99.90;;;;;;5074181;28;20082;-76
2022/11/28 00:06:45;;;;;;;247.73;83.72;;;4.20;99.90;;;;;;5074591;28;20020;-75
2022/11/28 00:09:12;;;;;;;279.65;89.18;;;4.20;99.90;;;;;;5074115;28;20024;-75
2022/11/28 00:11:43;;;;;;;273.80;91.13;;;4.20;99.90;;;;;;5074181;28;20012;-78
2022/11/28 00:14:09;;;;;;;322.35;104.15;;;4.20;99.90;;;;;;5074389;28;20062;-77
2022/11/28 00:16:35;;;;;;;270.27;89.00;;;4.20;99.90;;;;;;5074355;28;20052;-76
2022/11/28 00:19:01;;;;;;;292.27;97.93;;;4.20;99.90;;;;;;5072723;28;20028;-74
2022/11/28 00:21:28;;;;;;;209.20;68.85;;;4.20;99.90;;;;;;5074112;28;20025;-75
2022/11/28 00:23:53;;;;;;;246.50;77.07;;;4.10;99.90;;;;;;5074230;28;20021;-75
2022/11/28 00:26:24;;;;;;;247.00;85.72;;;4.20;99.90;;;;;;5074243;28;20096;-74
2022/11/28 00:28:50;;;;;;;228.35;76.15;;;4.30;99.90;;;;;;5074106;28;20474;-74
2022/11/28 00:31:21;;;;;;;246.60;78.03;;;4.30;99.90;;;;;;5074346;28;20056;-75
2022/11/28 00:33:47;;;;;;;241.65;77.30;;;4.30;99.90;;;;;;5073966;28;20024;-74
2022/11/28 00:36:13;;;;;;;374.80;144.13;;;4.30;99.90;;;;;;5073609;28;20459;-74
2022/11/28 00:38:40;;;;;;;229.38;76.47;;;4.30;99.90;;;;;;5073833;28;20481;-75
2022/11/28 00:41:14;;;;;;;208.77;70.35;;;4.30;99.90;;;;;;5074023;28;20024;-74
2022/11/28 00:43:42;;;;;;;231.13;77.70;;;4.40;99.90;;;;;;5074270;28;20031;-74
2022/11/28 00:46:08;;;;;;;282.33;94.20;;;4.40;99.90;;;;;;5073763;28;20024;-75
2022/11/28 00:48:35;;;;;;;296.88;90.80;;;4.40;99.90;;;;;;5073947;28;20348;-74
2022/11/28 00:51:08;;;;;;;245.88;78.05;;;4.40;99.90;;;;;;5072484;28;20112;-75
2022/11/28 00:53:34;;;;;;;261.83;80.47;;;4.40;99.90;;;;;;5073800;28;20107;-74
2022/11/28 00:55:59;;;;;;;215.27;63.15;;;4.40;99.90;;;;;;5074148;28;20108;-74
2022/11/28 00:58:25;;;;;;;265.17;80.18;;;4.40;99.90;;;;;;5073674;28;20043;-74
2022/11/28 01:00:51;;;;;;;256.92;80.15;;;4.40;99.90;;;;;;5073595;28;20029;-75
2022/11/28 01:03:16;;;;;;;258.23;79.57;;;4.40;99.90;;;;;;5073909;28;20358;-74
2022/11/28 01:05:42;;;;;;;288.10;86.28;;;4.50;99.90;;;;;;5073394;28;20020;-75
2022/11/28 01:08:09;;;;;;;235.10;71.82;;;4.40;99.90;;;;;;5073790;28;20386;-74
2022/11/28 01:10:41;;;;;;;349.80;100.15;;;4.40;99.90;;;;;;5073536;28;20112;-74
2022/11/28 01:13:08;;;;;;;409.20;127.30;;;4.40;99.90;;;;;;5073769;28;20013;-75
2022/11/28 01:15:34;;;;;;;194.68;59.83;;;4.50;99.90;;;;;;5073450;28;20131;-74
2022/11/28 01:18:01;;;;;;;560.10;152.50;;;4.40;99.90;;;;;;5073766;28;20467;-75
2022/11/28 01:20:28;;;;;;;202.07;59.47;;;4.40;99.90;;;;;;5073476;28;20064;-74
2022/11/28 01:22:54;;;;;;;262.48;75.38;;;4.30;99.90;;;;;;5073415;28;20021;-74
2022/11/28 01:25:19;;;;;;;201.43;61.83;;;4.40;99.90;;;;;;5073589;28;20021;-75
2022/11/28 01:27:45;;;;;;;191.70;60.45;;;4.30;99.90;;;;;;5073325;28;20032;-75
2022/11/28 01:30:11;;;;;;;207.55;63.08;;;4.40;99.90;;;;;;5073260;28;20036;-74
2022/11/28 01:32:37;;;;;;;194.38;60.40;;;4.30;99.90;;;;;;5073415;28;20056;-74
2022/11/28 01:35:03;;;;;;;215.38;70.38;;;4.40;99.90;;;;;;5073407;28;20033;-73
2022/11/28 01:37:29;;;;;;;231.68;79.03;;;4.40;99.90;;;;;;5077464;28;20028;-74
2022/11/28 01:39:55;;;;;;;210.00;75.38;;;4.40;99.90;;;;;;5077252;28;20112;-75
2022/11/28 01:42:21;;;;;;;212.02;68.45;;;4.40;99.90;;;;;;5077145;28;20095;-74
2022/11/28 01:44:47;;;;;;;225.55;70.95;;;4.40;99.90;;;;;;5077278;28;20028;-75
2022/11/28 01:47:16;;;;;;;198.30;62.90;;;4.40;99.90;;;;;;5076794;28;20096;-75
2022/11/28 01:49:43;;;;;;;206.10;61.63;;;4.40;99.90;;;;;;5076936;28;20020;-74
2022/11/28 01:52:14;;;;;;;201.77;61.08;;;4.40;99.90;;;;;;5077107;28;20024;-74
2022/11/28 01:54:43;;;;;;;216.80;65.05;;;4.40;99.90;;;;;;5077054;28;20012;-74
2022/11/28 01:57:14;;;;;;;200.40;59.03;;;4.40;99.90;;;;;;5076755;28;20020;-75
2022/11/28 02:00:08;;;;;;;194.57;59.28;;;4.40;99.90;;;;;;5077093;28;20024;-74
2022/11/28 02:02:47;;;;;;;158.50;50.85;;;4.30;99.90;;;;;;5075407;28;20069;-75
2022/11/28 02:05:15;;;;;;;189.25;56.28;;;4.30;99.90;;;;;;5076606;28;20017;-74
2022/11/28 02:07:42;;;;;;;178.77;55.67;;;4.30;99.90;;;;;;5075456;28;20054;-75
2022/11/28 02:10:11;;;;;;;192.80;58.03;;;4.30;99.90;;;;;;5076290;28;20035;-75
2022/11/28 02:12:39;;;;;;;178.85;54.42;;;4.40;99.90;;;;;;5076527;28;20024;-74
2022/11/28 02:15:30;;;;;;;179.27;57.30;;;4.40;99.90;;;;;;5076389;28;20036;-75
2022/11/28 02:18:11;;;;;;;191.80;53.78;;;4.40;99.90;;;;;;5076296;28;20024;-74
2022/11/28 02:21:01;;;;;;;191.32;54.42;;;4.40;99.90;;;;;;5076533;28;20028;-75
2022/11/28 02:23:45;;;;;;;177.18;52.88;;;4.40;99.90;;;;;;5076818;28;20008;-74
2022/11/28 02:26:23;;;;;;;174.38;54.20;;;4.40;99.90;;;;;;5076545;28;20017;-75
2022/11/28 02:29:21;;;;;;;173.25;53.63;;;4.40;99.90;;;;;;5076599;28;20039;-74
2022/11/28 02:32:12;;;;;;;170.80;53.92;;;4.50;99.90;;;;;;5071402;28;20029;-75
2022/11/28 02:35:08;;;;;;;173.23;52.00;;;4.50;99.90;;;;;;5074948;28;20059;-74
2022/11/28 02:37:52;;;;;;;168.13;52.38;;;4.50;99.90;;;;;;5076456;28;20095;-75
2022/11/28 02:40:32;;;;;;;172.70;52.05;;;4.50;99.90;;;;;;5076457;28;20058;-75
2022/11/28 02:43:21;;;;;;;171.90;53.63;;;4.50;99.90;;;;;;5076205;28;20445;-75
2022/11/28 02:45:52;;;;;;;164.27;51.75;;;4.50;99.90;;;;;;5076043;28;20019;-74
2022/11/28 02:48:46;;;;;;;163.27;52.80;;;4.50;99.90;;;;;;5076299;28;20016;-75
2022/11/28 02:51:22;;;;;;;154.60;50.17;;;4.60;99.90;;;;;;5075773;28;20021;-75
2022/11/28 02:53:50;;;;;;;157.70;48.75;;;4.60;99.90;;;;;;5075819;28;20062;-74
2022/11/28 02:56:15;;;;;;;172.02;52.42;;;4.60;99.90;;;;;;5075847;28;20052;-74
2022/11/28 02:58:41;;;;;;;173.38;52.50;;;4.60;99.90;;;;;;5075703;28;20106;-74
2022/11/28 03:01:20;;;;;;;160.70;50.03;;;4.70;99.90;;;;;;5075594;28;20371;-74
2022/11/28 03:03:48;;;;;;;172.00;52.33;;;4.70;99.90;;;;;;5075694;28;20032;-74
2022/11/28 03:06:45;;;;;;;179.23;55.35;;;4.80;99.90;;;;;;5075228;28;20112;-74
2022/11/28 03:09:49;;;;;;;174.73;56.05;;;4.70;99.90;;;;;;5075438;28;20111;-74
2022/11/28 03:12:32;;;;;;;199.43;58.28;;;4.80;99.90;;;;;;5075440;28;20024;-74
2022/11/28 03:15:01;;;;;;;185.88;59.55;;;4.80;99.90;;;;;;5075537;28;20079;-74
2022/11/28 03:17:38;;;;;;;179.07;58.58;;;4.80;99.90;;;;;;5075690;28;20020;-75
2022/11/28 03:20:34;;;;;;;186.15;57.75;;;4.80;99.90;;;;;;5074923;28;20371;-74
2022/11/28 03:23:20;;;;;;;180.98;57.20;;;4.80;99.90;;;;;;5075733;28;20051;-75
2022/11/28 03:25:46;;;;;;;179.25;55.33;;;4.80;99.90;;;;;;5074960;28;20020;-75
2022/11/28 03:28:30;;;;;;;183.30;57.35;;;4.90;99.90;;;;;;5075352;28;20025;-75
2022/11/28 03:31:19;;;;;;;187.52;59.25;;;4.90;99.90;;;;;;5075177;28;20189;-75
2022/11/28 03:33:50;;;;;;;188.70;58.55;;;4.90;99.90;;;;;;5075057;28;20025;-74
2022/11/28 03:36:25;;;;;;;186.75;60.97;;;4.90;99.90;;;;;;5075246;28;20383;-75
2022/11/28 03:39:01;;;;;;;191.20;60.00;;;4.90;99.90;;;;;;5074919;28;20058;-75
2022/11/28 03:41:50;;;;;;;182.50;57.22;;;4.90;99.90;;;;;;5074838;28;20027;-74
2022/11/28 03:44:23;;;;;;;226.20;68.28;;;4.90;99.90;;;;;;5075449;28;20028;-75
2022/11/28 03:46:50;;;;;;;227.52;70.43;;;4.90;99.90;;;;;;5075199;28;20028;-76
2022/11/28 03:49:22;;;;;;;206.05;65.93;;;4.80;99.90;;;;;;5074710;28;20024;-75
2022/11/28 03:52:06;;;;;;;198.10;56.60;;;4.80;99.90;;;;;;5074805;28;20017;-75
2022/11/28 03:54:37;;;;;;;202.27;61.53;;;4.80;99.90;;;;;;5074830;28;20116;-75
2022/11/28 03:57:19;;;;;;;206.65;63.72;;;4.80;99.90;;;;;;5074774;28;20452;-76
2022/11/28 03:59:53;;;;;;;198.68;62.55;;;4.80;99.90;;;;;;5074087;28;20031;-75
2022/11/28 04:02:46;;;;;;;179.60;58.10;;;4.80;99.90;;;;;;5074310;28;20406;-75
2022/11/28 04:05:40;;;;;;;183.85;57.40;;;4.80;99.90;;;;;;5074356;28;20100;-75
2022/11/28 04:08:28;;;;;;;219.00;65.72;;;4.80;99.90;;;;;;5074306;28;20099;-75
2022/11/28 04:11:29;;;;;;;214.15;66.40;;;4.80;99.90;;;;;;5074312;28;20435;-75
2022/11/28 04:13:57;;;;;;;231.03;69.20;;;4.80;99.90;;;;;;5074341;28;20451;-74
2022/11/28 04:16:33;;;;;;;215.38;64.88;;;4.70;99.90;;;;;;5074465;28;20135;-75
2022/11/28 04:19:20;;;;;;;224.43;65.93;;;4.80;99.90;;;;;;5074609;28;20029;-74
2022/11/28 04:22:11;;;;;;;208.20;62.22;;;4.80;99.90;;;;;;5074255;28;20035;-74
2022/11/28 04:24:44;;;;;;;211.95;62.20;;;4.80;99.90;;;;;;5074426;28;20059;-74
2022/11/28 04:27:14;;;;;;;206.55;60.83;;;4.70;99.90;;;;;;5073828;28;20092;-75
2022/11/28 04:29:46;;;;;;;200.43;59.67;;;4.70;99.90;;;;;;5073968;28;20066;-75
2022/11/28 04:32:13;;;;;;;193.18;55.35;;;4.70;99.90;;;;;;5074200;28;20078;-75
2022/11/28 04:34:43;;;;;;;164.18;52.55;;;4.70;99.90;;;;;;5074147;28;20025;-75
2022/11/28 04:37:13;;;;;;;182.50;52.28;;;4.70;99.90;;;;;;5073535;28;20469;-74
2022/11/28 04:39:43;;;;;;;182.68;54.00;;;4.70;99.90;;;;;;5074122;28;20025;-74
2022/11/28 04:42:44;;;;;;;176.63;52.13;;;4.70;99.90;;;;;;5073886;28;20047;-75
2022/11/28 04:45:27;;;;;;;167.25;52.40;;;4.70;99.90;;;;;;5073132;28;20036;-74
2022/11/28 04:47:53;;;;;;;172.32;52.20;;;4.60;99.90;;;;;;5073917;28;20049;-74
2022/11/28 04:50:24;;;;;;;172.18;53.35;;;4.50;99.90;;;;;;5074191;28;20024;-74
2022/11/28 04:53:10;;;;;;;206.43;54.97;;;4.50;99.90;;;;;;5073440;28;20017;-75
2022/11/28 04:55:55;;;;;;;184.13;55.35;;;4.40;99.90;;;;;;5073853;28;20024;-75
2022/11/28 04:58:34;;;;;;;186.93;58.17;;;4.40;99.90;;;;;;5073425;28;20027;-75
2022/11/28 05:01:03;;;;;;;175.68;53.88;;;4.40;99.90;;;;;;5072557;28;20477;-75
2022/11/28 05:03:30;;;;;;;146.18;47.35;;;4.30;99.90;;;;;;5072451;28;20107;-74
2022/11/28 05:05:56;;;;;;;132.23;42.50;;;4.30;99.90;;;;;;5072586;28;20024;-74
2022/11/28 05:08:22;;;;;;;164.70;53.53;;;4.20;99.90;;;;;;5073107;28;20055;-75
2022/11/28 05:10:48;;;;;;;178.02;56.92;;;4.20;99.90;;;;;;5074156;28;20052;-75
2022/11/28 05:13:14;;;;;;;197.65;62.40;;;4.20;99.90;;;;;;5077402;28;20031;-74
2022/11/28 05:15:40;;;;;;;152.45;50.08;;;4.20;99.90;;;;;;5077419;28;20036;-75
2022/11/28 05:18:06;;;;;;;127.60;42.72;;;4.10;99.90;;;;;;5076841;28;20074;-74
2022/11/28 05:20:32;;;;;;;125.95;43.58;;;4.20;99.90;;;;;;5076811;28;20032;-74
2022/11/28 05:22:58;;;;;;;128.68;45.28;;;4.20;99.90;;;;;;5077065;28;20103;-75
2022/11/28 05:25:24;;;;;;;142.10;48.72;;;4.10;99.90;;;;;;5077052;28;20399;-75
2022/11/28 05:27:49;;;;;;;165.05;54.97;;;4.10;99.90;;;;;;5076812;28;20017;-74
2022/11/28 05:30:15;;;;;;;176.15;57.28;;;4.10;99.90;;;;;;5076761;28;20055;-74
2022/11/28 05:32:41;;;;;;;210.82;67.53;;;4.10;99.90;;;;;;5076246;28;20020;-74
2022/11/28 05:35:07;;;;;;;214.30;70.15;;;4.10;99.90;;;;;;5075443;28;20103;-75
2022/11/28 05:37:33;;;;;;;206.35;64.65;;;4.10;99.90;;;;;;5074934;28;20029;-75
2022/11/28 05:39:59;;;;;;;187.10;60.28;;;4.00;99.90;;;;;;5071189;28;20029;-74
2022/11/28 05:42:27;;;;;;;173.10;56.35;;;3.90;99.90;;;;;;5076602;28;20027;-74
2022/11/28 05:44:53;;;;;;;188.95;56.72;;;3.90;99.90;;;;;;5076254;28;20024;-75
2022/11/28 05:47:18;;;;;;;202.20;62.30;;;3.90;99.90;;;;;;5076556;28;20020;-75
2022/11/28 05:49:46;;;;;;;217.50;66.57;;;3.80;99.90;;;;;;5075711;28;20417;-75
2022/11/28 05:52:11;;;;;;;227.98;69.70;;;3.80;99.90;;;;;;5077024;28;20441;-74
2022/11/28 05:54:37;;;;;;;256.63;75.35;;;3.90;99.90;;;;;;5075137;28;20506;-74
2022/11/28 05:57:05;;;;;;;262.73;62.85;;;3.90;99.90;;;;;;5077052;28;20067;-73
2022/11/28 05:59:31;;;;;;;259.65;73.97;;;3.80;99.90;;;;;;5076494;28;20028;-74
2022/11/28 06:01:57;;;;;;;233.00;63.13;;;3.70;99.90;;;;;;5076725;28;20027;-75
2022/11/28 06:04:22;;;;;;;247.13;58.08;;;3.70;99.90;;;;;;5076012;28;20359;-75
2022/11/28 06:06:50;;;;;;;221.43;64.28;;;3.60;99.90;;;;;;5076857;28;20358;-74
2022/11/28 06:09:16;;;;;;;268.02;68.30;;;3.60;99.90;;;;;;5076513;28;20028;-75
2022/11/28 06:11:41;;;;;;;206.15;61.20;;;3.60;99.90;;;;;;5076728;28;20027;-74
2022/11/28 06:14:08;;;;;;;236.75;67.30;;;3.60;99.90;;;;;;5076509;28;20024;-75
2022/11/28 06:16:34;;;;;;;188.73;53.38;;;3.70;99.90;;;;;;5076194;28;20036;-74
2022/11/28 06:19:04;;;;;;;158.40;49.92;;;3.70;99.90;;;;;;5076191;28;20489;-74
2022/11/28 06:21:30;;;;;;;125.25;44.83;;;3.60;99.90;;;;;;5076528;28;20017;-74
2022/11/28 06:23:57;;;;;;;152.82;53.63;;;3.70;99.90;;;;;;5076412;28;20025;-74
2022/11/28 06:26:25;;;;;;;143.75;46.88;;;3.70;99.90;;;;;;5076464;28;20456;-75
2022/11/28 06:28:51;;;;;;;147.27;46.10;;;3.70;99.90;;;;;;5076256;28;20026;-75
2022/11/28 06:31:20;;;;;;;140.73;45.75;;;3.60;99.90;;;;;;5076463;28;20020;-75
2022/11/28 06:33:46;;;;;;;162.73;51.45;;;3.70;99.90;;;;;;5075099;28;20051;-74
2022/11/28 06:36:12;;;;;;;146.07;45.28;;;3.70;99.90;;;;;;5076421;28;20443;-74
2022/11/28 06:38:38;;;;;;;156.43;49.25;;;3.70;99.90;;;;;;5075045;28;20026;-74
2022/11/28 06:41:10;;;;;;;154.18;47.20;;;3.70;99.90;;;;;;5076173;28;20029;-74
2022/11/28 06:43:36;;;;;;;153.35;47.25;;;3.70;99.90;;;;;;5076436;28;20024;-75
2022/11/28 06:46:02;;;;;;;138.13;46.85;;;3.70;99.90;;;;;;5076203;28;20035;-73
2022/11/28 06:48:28;;;;;;;173.00;53.80;;;3.70;99.90;;;;;;5076076;28;20047;-75
2022/11/28 06:51:04;;;;;;;147.07;46.15;;;3.70;99.90;;;;;;5075875;28;20055;-74
2022/11/28 06:53:31;;;;;;;188.70;56.80;;;3.70;99.90;;;;;;5076133;28;20106;-75
2022/11/28 06:55:57;;;;;;;173.82;52.60;;;3.70;99.90;;;;;;5075573;28;20482;-75
2022/11/28 06:58:22;;;;;;;220.50;61.70;;;3.70;99.90;;;;;;5075534;28;20089;-75
2022/11/28 07:00:48;;;;;;;243.75;70.68;;;3.60;99.90;;;;;;5075881;28;20518;-74
2022/11/28 07:03:14;;;;;;;228.52;62.75;;;3.60;99.90;;;;;;5076201;28;20031;-75
2022/11/28 07:05:40;;;;;;;237.05;69.43;;;3.70;99.90;;;;;;5075611;28;20370;-75
2022/11/28 07:08:06;;;;;;;217.23;62.65;;;3.80;99.90;;;;;;5075678;28;20027;-74
2022/11/28 07:10:31;;;;;;;237.82;68.95;;;3.90;99.90;;;;;;5075749;28;20078;-76
2022/11/28 07:12:59;;;;;;;237.07;61.60;;;3.90;99.90;;;;;;5075212;28;20025;-75
2022/11/28 07:15:25;;;;;;;285.60;87.45;;;3.90;99.90;;;;;;5075315;28;20037;-75
2022/11/28 07:17:52;;;;;;;227.98;67.97;;;4.00;99.90;;;;;;5075065;28;20021;-74
2022/11/28 07:20:18;;;;;;;238.85;70.70;;;4.10;99.90;;;;;;5075437;28;20028;-75
2022/11/28 07:22:45;;;;;;;238.82;71.60;;;4.10;99.90;;;;;;5075373;28;20024;-74
2022/11/28 07:25:13;;;;;;;207.38;70.10;;;4.20;99.90;;;;;;5075313;28;20020;-74
2022/11/28 07:27:40;;;;;;;200.95;70.35;;;4.20;99.90;;;;;;5075083;28;20082;-75
2022/11/28 07:30:07;;;;;;;246.02;78.05;;;4.30;99.90;;;;;;5075233;28;20036;-74
2022/11/28 07:32:32;;;;;;;229.18;76.50;;;4.30;99.90;;;;;;5074591;28;20021;-74
2022/11/28 07:34:59;;;;;;;216.10;70.72;;;4.40;99.90;;;;;;5075004;28;20027;-75
2022/11/28 07:37:25;;;;;;;228.48;74.10;;;4.40;99.90;;;;;;5073827;28;20031;-75
2022/11/28 07:39:50;;;;;;;228.35;72.35;;;4.50;99.90;;;;;;5075101;28;20036;-75
2022/11/28 07:42:16;;;;;;;242.32;82.85;;;4.40;99.90;;;;;;5075091;28;20024;-76
2022/11/28 07:44:42;;;;;;;274.80;99.00;;;4.50;99.90;;;;;;5074922;28;20041;-75
2022/11/28 07:47:08;;;;;;;219.68;74.32;;;4.50;99.90;;;;;;5074754;28;20094;-75
2022/11/28 07:49:33;;;;;;;198.27;64.95;;;4.50;99.90;;;;;;5075244;28;20103;-74
2022/11/28 07:51:59;;;;;;;226.32;70.35;;;4.50;99.90;;;;;;5075251;28;20454;-75
2022/11/28 07:54:25;;;;;;;229.85;65.03;;;4.50;99.90;;;;;;5074439;28;20413;-75
2022/11/28 07:56:51;;;;;;;223.88;73.53;;;4.60;99.90;;;;;;5074770;28;20025;-74
2022/11/28 07:59:17;;;;;;;214.95;77.90;;;4.70;99.90;;;;;;5074548;28;20032;-74
2022/11/28 08:01:43;;;;;;;178.65;61.67;;;4.70;99.90;;;;;;5074296;28;20078;-75
2022/11/28 08:04:09;;;;;;;202.70;75.82;;;4.80;99.90;;;;;;5073274;28;20024;-75
2022/11/28 08:06:38;;;;;;;185.32;64.53;;;4.90;99.90;;;;;;5074426;28;20329;-74
2022/11/28 08:09:05;;;;;;;240.05;87.63;;;4.90;99.90;;;;;;5074649;28;20081;-74
2022/11/28 08:11:32;;;;;;;195.07;74.22;;;4.90;99.90;;;;;;5074472;28;20021;-74
2022/11/28 08:13:58;;;;;;;185.18;69.43;;;5.00;99.90;;;;;;5074103;28;20027;-75
2022/11/28 08:16:26;;;;;;;418.08;137.00;;;4.90;99.90;;;;;;5074539;28;20087;-74
2022/11/28 08:18:53;;;;;;;183.48;64.53;;;4.90;99.90;;;;;;5074460;28;20073;-75
2022/11/28 08:21:26;;;;;;;164.90;61.13;;;4.90;99.90;;;;;;5074066;28;20075;-75
2022/11/28 08:23:53;;;;;;;173.77;61.22;;;5.00;99.90;;;;;;5074022;28;20111;-74
2022/11/28 08:26:24;;;;;;;160.32;59.15;;;5.00;99.90;;;;;;5074168;28;20108;-75
2022/11/28 08:28:52;;;;;;;153.60;56.17;;;5.00;99.90;;;;;;5074049;28;20016;-74
2022/11/28 08:31:22;;;;;;;294.02;109.20;;;5.00;99.90;;;;;;5074223;28;20107;-74
2022/11/28 08:33:49;;;;;;;222.70;77.70;;;5.10;99.90;;;;;;5073603;28;20448;-74
2022/11/28 08:36:16;;;;;;;214.93;78.90;;;5.10;99.90;;;;;;5073768;28;20017;-74
2022/11/28 08:38:42;;;;;;;173.45;63.38;;;5.10;99.90;;;;;;5073719;28;20371;-74
2022/11/28 08:41:14;;;;;;;368.70;142.93;;;5.00;99.90;;;;;;5073879;28;20538;-75
2022/11/28 08:43:40;;;;;;;269.13;103.22;;;5.10;99.90;;;;;;5073890;28;20016;-74
2022/11/28 08:46:09;;;;;;;212.18;78.82;;;5.10;99.90;;;;;;5073531;28;20020;-73
2022/11/28 08:48:36;;;;;;;237.45;88.38;;;5.00;99.90;;;;;;5073451;28;20116;-74
2022/11/28 08:51:03;;;;;;;222.50;80.30;;;5.00;99.90;;;;;;5073705;28;20025;-75
2022/11/28 08:53:29;;;;;;;360.90;131.63;;;4.90;99.90;;;;;;5073530;28;20032;-75
2022/11/28 08:55:55;;;;;;;265.02;97.35;;;5.00;99.90;;;;;;5073294;28;20386;-76
2022/11/28 08:58:20;;;;;;;236.20;84.22;;;5.00;99.90;;;;;;5073302;28;20107;-75
2022/11/28 09:00:46;;;;;;;251.98;93.15;;;5.00;99.90;;;;;;5072592;28;20451;-74
2022/11/28 09:03:16;;;;;;;164.55;59.17;;;5.00;99.90;;;;;;5073597;28;20107;-75
2022/11/28 09:05:45;;;;;;;223.25;84.80;;;5.00;99.90;;;;;;5073819;28;20024;-75
2022/11/28 09:08:11;;;;;;;281.67;108.82;;;4.90;99.90;;;;;;5073688;28;20021;-74
2022/11/28 09:10:38;;;;;;;262.65;100.97;;;5.00;99.90;;;;;;5073568;28;20490;-74
2022/11/28 09:13:05;;;;;;;261.45;107.07;;;5.10;99.90;;;;;;5073742;28;20021;-75
2022/11/28 09:15:31;;;;;;;286.75;121.18;;;5.20;99.90;;;;;;5073164;28;20121;-75
2022/11/28 09:17:57;;;;;;;254.43;102.88;;;5.20;99.90;;;;;;5073216;28;20118;-75
2022/11/28 09:20:23;;;;;;;166.77;65.35;;;5.30;99.90;;;;;;5073625;28;20056;-75
2022/11/28 09:22:49;;;;;;;207.38;83.20;;;5.40;99.90;;;;;;5073587;28;20100;-74
2022/11/28 09:25:15;;;;;;;249.63;99.38;;;5.40;99.90;;;;;;5073668;28;20142;-76
2022/11/28 09:27:41;;;;;;;227.57;89.78;;;5.40;99.90;;;;;;5073616;28;20039;-74
2022/11/28 09:30:08;;;;;;;281.63;117.88;;;5.50;99.90;;;;;;5073569;28;20447;-74
2022/11/28 09:32:34;;;;;;;289.90;115.75;;;5.50;99.90;;;;;;5073353;28;20027;-74
2022/11/28 09:35:00;;;;;;;234.00;98.78;;;5.50;99.90;;;;;;5073371;28;20021;-74
2022/11/28 09:37:27;;;;;;;151.60;60.35;;;5.60;99.90;;;;;;5073160;28;20078;-75
2022/11/28 09:39:53;;;;;;;150.93;64.03;;;5.60;99.90;;;;;;5073152;28;20024;-75
2022/11/28 09:42:37;;;;;;;130.32;53.70;;;5.50;99.90;;;;;;5073377;28;20067;-74
2022/11/28 09:45:09;;;;;;;150.07;63.17;;;5.50;99.90;;;;;;5073266;28;20498;-74
2022/11/28 09:47:36;;;;;;;;;;;5.70;99.90;;;;;;5073657;28;20024;-75
2022/11/28 09:50:15;;;;;;;152.13;65.28;;;5.80;99.90;;;;;;5073042;28;20019;-74
2022/11/28 09:53:00;;;;;;;116.95;52.45;;;5.90;99.90;;;;;;5073202;28;20020;-75
2022/11/28 09:55:38;;;;;;;129.40;57.35;;;5.90;99.90;;;;;;5073895;28;20451;-74
2022/11/28 09:58:38;;;;;;;152.18;67.97;;;6.00;99.90;;;;;;5076942;28;20451;-75
2022/11/28 10:01:10;;;;;;;155.48;73.38;;;6.20;99.90;;;;;;5076846;28;20482;-74
2022/11/28 10:04:01;;;;;;;146.32;66.28;;;6.40;99.90;;;;;;5077280;28;20021;-74
2022/11/28 10:06:46;;;;;;;162.10;58.38;;;6.40;99.90;;;;;;5076451;28;20483;-74
2022/11/28 10:09:27;;;;;;;164.75;77.95;;;6.50;99.90;;;;;;5075656;28;20375;-75
2022/11/28 10:11:52;;;;;;;205.90;93.32;;;6.70;99.90;;;;;;5076424;28;20516;-75
2022/11/28 10:14:39;;;;;;;172.40;77.28;;;6.50;99.90;;;;;;5076573;28;20021;-75
2022/11/28 10:17:29;;;;;;;182.13;82.90;;;6.60;99.90;;;;;;5076937;28;20473;-74
2022/11/28 10:20:11;;;;;;;235.65;103.80;;;6.70;99.90;;;;;;5076461;28;20025;-75
2022/11/28 10:22:56;;;;;;;214.73;95.85;;;6.80;99.90;;;;;;5076511;28;20046;-75
2022/11/28 10:25:30;;;;;;;167.57;75.38;;;7.00;99.90;;;;;;5076561;28;20520;-75
2022/11/28 10:27:56;;;;;;;118.15;56.47;;;7.00;99.90;;;;;;5075096;28;20024;-75
2022/11/28 10:30:35;;;;;;;115.40;52.78;;;7.20;99.90;;;;;;5076523;28;20467;-74
2022/11/28 10:33:03;;;;;;;115.15;52.42;;;7.20;99.90;;;;;;5076516;28;20017;-74
2022/11/28 10:35:43;;;;;;;134.43;60.80;;;7.20;99.90;;;;;;5076173;28;20351;-75
2022/11/28 10:38:14;;;;;;;116.72;54.38;;;7.20;99.90;;;;;;5076066;28;20059;-75
2022/11/28 10:41:15;;;;;;;149.27;68.70;;;7.10;99.90;;;;;;5076090;28;20025;-75
2022/11/28 10:43:43;;;;;;;144.90;71.70;;;7.20;99.90;;;;;;5076061;28;20025;-74
2022/11/28 10:46:31;;;;;;;209.65;93.55;;;7.00;99.90;;;;;;5075818;28;20021;-75
2022/11/28 10:49:18;;;;;;;124.88;60.33;;;7.10;99.90;;;;;;5075960;28;20446;-74
2022/11/28 10:51:52;;;;;;;117.72;52.72;;;7.10;99.90;;;;;;5075843;28;20104;-74
2022/11/28 10:54:23;;;;;;;161.55;74.15;;;7.00;99.90;;;;;;5075868;28;20025;-75
2022/11/28 10:57:13;;;;;;;139.87;61.53;;;7.10;99.90;;;;;;5076136;28;20048;-75
2022/11/28 11:00:04;;;;;;;149.85;65.32;;;7.00;99.90;;;;;;5076068;28;20067;-75
2022/11/28 11:02:36;;;;;;;116.78;55.20;;;7.00;99.90;;;;;;5075680;28;20107;-74
2022/11/28 11:05:03;;;;;;;102.90;52.13;;;7.10;99.90;;;;;;5075960;28;20032;-74
2022/11/28 11:07:31;;;;;;;186.73;96.85;;;7.20;99.90;;;;;;5074870;28;20059;-75
2022/11/28 11:10:27;;;;;;;117.88;59.67;;;7.20;99.90;;;;;;5075227;28;20466;-75
2022/11/28 11:12:53;;;;;;;203.35;108.38;;;7.20;99.90;;;;;;5073050;28;20472;-74
2022/11/28 11:15:30;;;;;;;223.43;109.43;;;7.20;99.90;;;;;;5075301;28;20052;-75
2022/11/28 11:17:57;;;;;;;84.95;41.45;;;7.20;99.90;;;;;;5075117;28;20482;-75
2022/11/28 11:20:30;;;;;;;121.95;58.47;;;7.10;99.90;;;;;;5075371;28;20024;-74
2022/11/28 11:22:59;;;;;;;103.40;45.75;;;7.10;99.90;;;;;;5075024;28;20528;-75
2022/11/28 11:25:28;;;;;;;199.15;96.35;;;7.10;99.90;;;;;;5075525;28;20025;-75
2022/11/28 11:27:56;;;;;;;116.97;55.35;;;7.10;99.90;;;;;;5075362;28;20053;-75
2022/11/28 11:30:25;;;;;;;352.02;167.07;;;7.00;99.90;;;;;;5074833;28;20162;-75
2022/11/28 11:32:51;;;;;;;154.07;74.03;;;7.10;99.90;;;;;;5075220;28;20073;-75
2022/11/28 11:35:24;;;;;;;181.95;91.70;;;7.10;99.90;;;;;;5075129;28;20032;-75
2022/11/28 11:37:51;;;;;;;174.13;87.53;;;7.10;99.90;;;;;;5075064;28;20043;-74
2022/11/28 11:40:27;;;;;;;76.38;37.55;;;7.00;99.90;;;;;;5075133;28;20050;-75
2022/11/28 11:42:58;;;;;;;108.82;53.97;;;7.00;99.90;;;;;;5074796;28;20022;-74
2022/11/28 11:45:33;;;;;;;115.77;57.77;;;7.10;99.90;;;;;;5074868;28;20103;-74
2022/11/28 11:48:00;;;;;;;83.50;39.95;;;7.10;99.90;;;;;;5074858;28;20017;-74
2022/11/28 11:50:29;;;;;;;112.05;59.83;;;7.00;99.90;;;;;;5075044;28;20363;-74
2022/11/28 11:53:11;;;;;;;141.45;76.28;;;7.10;99.90;;;;;;5074625;28;20336;-74
2022/11/28 11:55:50;;;;;;;95.05;50.03;;;7.00;99.90;;;;;;5073709;28;20044;-74
2022/11/28 11:58:42;;;;;;;94.53;45.85;;;7.00;99.90;;;;;;5074503;28;20017;-75
2022/11/28 12:01:10;;;;;;;127.95;56.28;;;6.80;99.90;;;;;;5069068;28;20048;-75
2022/11/28 12:03:52;;;;;;;142.40;59.05;;;6.70;99.90;;;;;;5074533;28;20477;-76
2022/11/28 12:06:41;;;;;;;111.72;48.78;;;6.80;99.90;;;;;;5074559;28;20021;-75
2022/11/28 12:09:39;;;;;;;131.75;53.75;;;6.90;99.90;;;;;;5074530;28;20119;-75
2022/11/28 12:12:16;;;;;;;259.17;92.63;;;6.90;99.90;;;;;;5074647;28;20020;-75
2022/11/28 12:14:43;;;;;;;192.65;75.93;;;6.90;99.90;;;;;;5074446;28;20041;-75
2022/11/28 12:17:23;;;;;;;107.32;51.60;;;7.00;99.90;;;;;;5074402;28;20069;-74
2022/11/28 12:20:08;;;;;;;190.35;74.75;;;7.10;99.90;;;;;;5073822;28;20051;-74
2022/11/28 12:22:46;;;;;;;198.00;77.25;;;7.20;99.90;;;;;;5073943;28;20052;-75
2022/11/28 12:25:24;;;;;;;214.35;78.65;;;7.20;99.90;;;;;;5074050;28;20099;-78
2022/11/28 12:28:08;;;;;;;169.15;75.82;;;7.20;99.90;;;;;;5074071;28;20027;-75
2022/11/28 12:30:52;;;;;;;180.02;90.55;;;7.30;99.90;;;;;;5074171;28;20027;-75
2022/11/28 12:33:33;;;;;;;201.32;93.03;;;7.30;99.90;;;;;;5074014;28;20023;-75
2022/11/28 12:36:37;;;;;;;114.38;55.67;;;7.30;99.90;;;;;;5074262;28;20024;-76
2022/11/28 12:39:11;;;;;;;174.13;80.20;;;7.20;99.90;;;;;;5051636;28;20033;-76
2022/11/28 12:41:45;;;;;;;225.68;104.82;;;7.20;99.90;;;;;;5051575;28;20641;-76
2022/11/28 12:44:19;;;;;;;346.38;160.00;;;7.20;99.90;;;;;;5051642;28;20024;-76
2022/11/28 12:46:53;;;;;;;459.15;215.05;;;7.10;99.90;;;;;;5051588;28;20060;-75
2022/11/28 12:49:34;;;;;;;406.23;187.48;;;7.20;99.90;;;;;;5051708;28;20040;-76
2022/11/28 12:52:28;;;;;;;268.25;118.13;;;7.20;99.90;;;;;;5051603;28;20033;-76